createdAt,value
2023-04-10T00:00:06.809Z,4.63
2023-04-10T00:02:34.663Z,4.69
2023-04-10T00:05:02.223Z,4.62
2023-04-10T00:07:29.694Z,4.57
2023-04-10T00:09:57.142Z,4.98
2023-04-10T00:12:25.314Z,5.13
2023-04-10T00:14:52.719Z,5.15
2023-04-10T00:17:20.404Z,4.74
2023-04-10T00:19:47.796Z,4.74
2023-04-10T00:22:15.551Z,4.73
2023-04-10T00:24:42.935Z,4.64
2023-04-10T00:27:10.568Z,4.53
2023-04-10T00:29:37.887Z,4.49
2023-04-10T00:32:05.607Z,4.48
2023-04-10T00:34:33.036Z,4.81
2023-04-10T00:37:00.683Z,4.47
2023-04-10T00:39:28.154Z,4.47
2023-04-10T00:41:55.804Z,4.47
2023-04-10T00:44:23.238Z,4.17
2023-04-10T00:46:50.628Z,4.11
2023-04-10T00:49:18.592Z,4.03
2023-04-10T00:51:47.934Z,4.20
2023-04-10T00:54:15.584Z,4.07
2023-04-10T00:56:45.435Z,3.93
2023-04-10T00:59:12.888Z,4.04
2023-04-10T01:01:40.007Z,3.89
2023-04-10T01:04:08.438Z,4.01
2023-04-10T01:06:59.711Z,4.03
2023-04-10T01:09:42.269Z,3.87
2023-04-10T01:12:24.633Z,4.00
2023-04-10T01:15:38.096Z,3.94
2023-04-10T01:18:21.707Z,4.13
2023-04-10T01:20:49.128Z,4.15
2023-04-10T01:23:46.727Z,4.29
2023-04-10T01:26:17.580Z,4.38
2023-04-10T01:29:01.885Z,4.50
2023-04-10T01:32:11.961Z,4.44
2023-04-10T01:34:50.701Z,4.39
2023-04-10T01:37:27.970Z,4.24
2023-04-10T01:40:07.120Z,4.41
2023-04-10T01:42:40.445Z,4.37
2023-04-10T01:45:09.584Z,4.28
2023-04-10T01:47:37.340Z,4.25
2023-04-10T01:50:05.305Z,4.38
2023-04-10T01:52:34.437Z,4.38
2023-04-10T01:55:03.107Z,4.36
2023-04-10T01:57:31.902Z,4.28
2023-04-10T01:59:59.489Z,4.29
2023-04-10T02:02:30.908Z,4.18
2023-04-10T02:04:58.448Z,4.01
2023-04-10T02:07:37.194Z,4.10
2023-04-10T02:10:23.625Z,4.07
2023-04-10T02:13:00.311Z,4.10
2023-04-10T02:15:32.463Z,3.90
2023-04-10T02:18:00.387Z,3.88
2023-04-10T02:20:28.084Z,3.95
2023-04-10T02:22:55.750Z,3.95
2023-04-10T02:25:23.182Z,3.82
2023-04-10T02:27:50.558Z,3.77
2023-04-10T02:30:17.987Z,3.75
2023-04-10T02:32:45.408Z,3.75
2023-04-10T02:35:12.790Z,3.87
2023-04-10T02:37:40.441Z,3.85
2023-04-10T02:40:08.292Z,3.86
2023-04-10T02:42:35.922Z,3.86
2023-04-10T02:45:03.378Z,3.93
2023-04-10T02:47:31.116Z,3.78
2023-04-10T02:49:58.546Z,3.83
2023-04-10T02:52:25.737Z,3.92
2023-04-10T02:54:53.136Z,3.91
2023-04-10T02:57:21.452Z,3.65
2023-04-10T02:59:51.595Z,3.68
2023-04-10T03:02:19.093Z,3.74
2023-04-10T03:04:46.534Z,3.48
2023-04-10T03:07:13.952Z,3.68
2023-04-10T03:09:41.343Z,3.77
2023-04-10T03:12:08.694Z,3.62
2023-04-10T03:14:36.321Z,3.59
2023-04-10T03:17:03.895Z,3.69
2023-04-10T03:19:31.421Z,3.42
2023-04-10T03:21:58.754Z,3.67
2023-04-10T03:24:27.185Z,3.50
2023-04-10T03:26:54.890Z,3.47
2023-04-10T03:29:22.636Z,3.40
2023-04-10T03:31:50.068Z,3.54
2023-04-10T03:34:17.402Z,3.40
2023-04-10T03:36:44.759Z,3.41
2023-04-10T03:39:12.162Z,3.47
2023-04-10T03:41:39.481Z,3.73
2023-04-10T03:44:06.830Z,3.30
2023-04-10T03:46:34.239Z,3.65
2023-04-10T03:49:01.618Z,3.78
2023-04-10T03:51:28.992Z,3.95
2023-04-10T03:53:56.490Z,4.14
2023-04-10T03:56:24.064Z,4.01
2023-04-10T03:58:51.462Z,3.69
2023-04-10T04:01:18.916Z,3.74
2023-04-10T04:03:46.482Z,3.84
2023-04-10T04:06:14.002Z,3.58
2023-04-10T04:08:41.410Z,3.53
2023-04-10T04:11:08.874Z,3.47
2023-04-10T04:13:36.223Z,3.60
2023-04-10T04:16:03.661Z,3.41
2023-04-10T04:18:31.039Z,3.95
2023-04-10T04:20:58.370Z,3.29
2023-04-10T04:23:25.840Z,3.63
2023-04-10T04:25:54.447Z,3.42
2023-04-10T04:28:22.168Z,3.56
2023-04-10T04:30:49.613Z,3.41
2023-04-10T04:33:16.995Z,3.42
2023-04-10T04:35:44.020Z,3.42
2023-04-10T04:38:11.058Z,3.47
2023-04-10T04:40:38.435Z,3.38
2023-04-10T04:43:05.958Z,3.37
2023-04-10T04:45:33.328Z,3.14
2023-04-10T04:48:00.631Z,3.53
2023-04-10T04:50:28.367Z,3.64
2023-04-10T04:52:56.210Z,3.43
2023-04-10T04:55:24.276Z,3.47
2023-04-10T04:57:51.628Z,3.57
2023-04-10T05:00:21.473Z,3.89
2023-04-10T05:02:48.800Z,3.77
2023-04-10T05:05:16.777Z,3.55
2023-04-10T05:07:44.271Z,3.60
2023-04-10T05:10:12.296Z,3.57
2023-04-10T05:12:43.673Z,3.53
2023-04-10T05:15:14.307Z,3.28
2023-04-10T05:17:42.083Z,3.39
2023-04-10T05:20:11.020Z,3.44
2023-04-10T05:22:38.673Z,3.47
2023-04-10T05:25:06.859Z,3.60
2023-04-10T05:27:34.872Z,3.42
2023-04-10T05:30:02.679Z,3.47
2023-04-10T05:32:30.085Z,3.62
2023-04-10T05:34:57.570Z,3.84
2023-04-10T05:37:25.432Z,3.86
2023-04-10T05:39:52.784Z,4.04
2023-04-10T05:42:21.542Z,4.08
2023-04-10T05:44:51.889Z,4.07
2023-04-10T05:47:19.136Z,4.05
2023-04-10T05:49:46.564Z,4.07
2023-04-10T05:52:15.773Z,4.03
2023-04-10T05:54:43.185Z,4.10
2023-04-10T05:57:10.633Z,4.20
2023-04-10T05:59:38.062Z,4.39
2023-04-10T06:02:06.244Z,4.35
2023-04-10T06:04:34.100Z,4.97
2023-04-10T06:07:01.736Z,4.90
2023-04-10T06:09:29.138Z,4.80
2023-04-10T06:11:56.880Z,4.90
2023-04-10T06:14:24.409Z,5.10
2023-04-10T06:16:51.889Z,5.32
2023-04-10T06:19:19.274Z,5.34
2023-04-10T06:21:46.926Z,5.55
2023-04-10T06:24:14.447Z,5.64
2023-04-10T06:26:41.869Z,5.68
2023-04-10T06:29:09.294Z,5.70
2023-04-10T06:31:36.795Z,5.78
2023-04-10T06:34:04.228Z,5.78
2023-04-10T06:36:31.751Z,5.88
2023-04-10T06:38:59.200Z,6.10
2023-04-10T06:41:26.594Z,6.05
2023-04-10T06:43:54.212Z,6.25
2023-04-10T06:46:21.698Z,6.38
2023-04-10T06:48:49.127Z,6.36
2023-04-10T06:51:16.961Z,6.64
2023-04-10T06:53:44.540Z,6.67
2023-04-10T06:56:12.147Z,6.78
2023-04-10T06:58:39.952Z,6.83
2023-04-10T07:01:07.411Z,6.87
2023-04-10T07:03:35.914Z,6.92
2023-04-10T07:06:03.538Z,6.92
2023-04-10T07:08:31.328Z,7.11
2023-04-10T07:10:59.005Z,7.27
2023-04-10T07:13:26.506Z,7.35
2023-04-10T07:15:54.020Z,7.41
2023-04-10T07:18:21.528Z,7.74
2023-04-10T07:20:50.196Z,7.68
2023-04-10T07:23:17.789Z,7.65
2023-04-10T07:25:45.182Z,7.95
2023-04-10T07:28:12.507Z,8.09
2023-04-10T07:30:40.097Z,7.97
2023-04-10T07:33:07.966Z,7.87
2023-04-10T07:35:35.579Z,8.16
2023-04-10T07:38:03.002Z,8.18
2023-04-10T07:40:30.423Z,8.36
2023-04-10T07:42:57.407Z,8.34
2023-04-10T07:45:24.897Z,8.55
2023-04-10T07:47:51.941Z,8.64
2023-04-10T07:50:19.181Z,8.70
2023-04-10T07:52:46.846Z,8.74
2023-04-10T07:55:14.000Z,9.06
2023-04-10T07:57:42.313Z,9.26
2023-04-10T08:00:10.096Z,9.33
2023-04-10T08:02:37.491Z,9.54
2023-04-10T08:05:05.453Z,9.77
2023-04-10T08:07:32.496Z,9.95
2023-04-10T08:09:59.446Z,9.97
2023-04-10T08:12:26.450Z,10.12
2023-04-10T08:14:53.556Z,10.32
2023-04-10T08:17:20.597Z,10.54
2023-04-10T08:19:47.624Z,10.73
2023-04-10T08:22:14.593Z,10.84
2023-04-10T08:24:41.546Z,10.95
2023-04-10T08:27:08.496Z,11.32
2023-04-10T08:29:35.509Z,11.15
2023-04-10T08:32:02.737Z,11.66
2023-04-10T08:34:29.738Z,12.02
2023-04-10T08:36:57.797Z,11.65
2023-04-10T08:39:24.889Z,11.89
2023-04-10T08:41:52.197Z,12.23
2023-04-10T08:44:19.172Z,12.58
2023-04-10T08:46:46.565Z,12.62
2023-04-10T08:49:39.714Z,13.01
2023-04-10T08:52:09.775Z,13.11
2023-04-10T08:54:39.205Z,12.94
2023-04-10T08:57:10.602Z,13.17
2023-04-10T08:59:38.077Z,13.29
2023-04-10T09:02:06.563Z,13.54
2023-04-10T09:04:33.698Z,13.81
2023-04-10T09:07:01.495Z,14.04
2023-04-10T09:09:32.422Z,13.83
2023-04-10T09:12:02.689Z,13.82
2023-04-10T09:14:33.783Z,14.14
2023-04-10T09:17:22.033Z,14.27
2023-04-10T09:19:54.764Z,14.21
2023-04-10T09:22:35.995Z,14.62
2023-04-10T09:25:05.004Z,14.87
2023-04-10T09:27:37.448Z,14.69
2023-04-10T09:30:07.068Z,14.89
2023-04-10T09:32:44.795Z,14.51
2023-04-10T09:35:14.301Z,14.31
2023-04-10T09:37:44.544Z,14.62
2023-04-10T09:40:25.675Z,15.14
2023-04-10T09:42:56.303Z,15.25
2023-04-10T09:45:23.350Z,15.51
2023-04-10T09:48:08.855Z,15.80
2023-04-10T09:50:43.697Z,15.41
2023-04-10T09:53:13.798Z,15.49
2023-04-10T09:55:42.505Z,15.44
2023-04-10T09:58:10.610Z,15.79
2023-04-10T10:00:44.757Z,15.56
2023-04-10T10:03:17.957Z,15.56
2023-04-10T10:05:51.534Z,15.61
2023-04-10T10:08:19.112Z,15.97
2023-04-10T10:10:53.970Z,15.93
2023-04-10T10:13:34.894Z,16.63
2023-04-10T10:16:11.483Z,16.51
2023-04-10T10:18:55.634Z,16.44
2023-04-10T10:21:24.271Z,16.17
2023-04-10T10:23:54.966Z,16.99
2023-04-10T10:26:23.742Z,16.77
2023-04-10T10:28:56.237Z,16.79
2023-04-10T10:31:24.477Z,17.32
2023-04-10T10:33:55.585Z,17.15
2023-04-10T10:36:23.342Z,17.30
2023-04-10T10:39:21.700Z,17.72
2023-04-10T10:42:01.877Z,18.15
2023-04-10T10:45:02.088Z,17.62
2023-04-10T10:47:33.111Z,17.76
2023-04-10T10:50:03.304Z,17.94
2023-04-10T10:52:57.497Z,17.63
2023-04-10T10:55:25.188Z,17.41
2023-04-10T10:57:57.648Z,17.83
2023-04-10T11:00:27.098Z,18.18
2023-04-10T11:03:09.421Z,18.56
2023-04-10T11:05:56.733Z,18.39
2023-04-10T11:08:55.376Z,18.24
2023-04-10T11:11:24.539Z,17.84
2023-04-10T11:13:57.975Z,17.82
2023-04-10T11:16:35.382Z,17.77
2023-04-10T11:19:14.339Z,17.57
2023-04-10T11:22:05.709Z,17.88
2023-04-10T11:24:53.388Z,18.19
2023-04-10T11:27:49.397Z,18.48
2023-04-10T11:30:32.088Z,18.54
2023-04-10T11:33:02.194Z,19.19
2023-04-10T11:35:31.636Z,18.94
2023-04-10T11:38:18.283Z,19.17
2023-04-10T11:41:02.419Z,19.29
2023-04-10T11:43:30.194Z,19.40
2023-04-10T11:46:06.280Z,18.76
2023-04-10T11:48:34.500Z,18.44
2023-04-10T11:51:09.168Z,18.68
2023-04-10T11:53:36.524Z,18.91
2023-04-10T11:56:04.601Z,18.62
2023-04-10T11:58:32.573Z,18.64
2023-04-10T12:01:05.025Z,18.43
2023-04-10T12:03:40.577Z,18.45
2023-04-10T12:06:14.064Z,18.34
2023-04-10T12:08:49.315Z,18.67
2023-04-10T12:11:20.581Z,18.48
2023-04-10T12:13:48.900Z,18.69
2023-04-10T12:16:16.156Z,18.83
2023-04-10T12:18:45.275Z,18.71
2023-04-10T12:21:12.704Z,18.76
2023-04-10T12:23:40.257Z,19.42
2023-04-10T12:26:14.386Z,19.25
2023-04-10T12:28:49.490Z,19.15
2023-04-10T12:31:16.631Z,19.32
2023-04-10T12:33:47.228Z,19.58
2023-04-10T12:36:30.059Z,19.81
2023-04-10T12:39:05.258Z,19.15
2023-04-10T12:41:34.935Z,19.27
2023-04-10T12:44:13.698Z,19.92
2023-04-10T12:46:43.540Z,19.11
2023-04-10T12:49:18.493Z,19.05
2023-04-10T12:51:52.961Z,19.00
2023-04-10T12:54:37.421Z,19.02
2023-04-10T12:57:06.425Z,18.97
2023-04-10T12:59:33.870Z,19.17
2023-04-10T13:02:01.678Z,19.14
2023-04-10T13:04:32.333Z,19.33
2023-04-10T13:06:59.404Z,19.12
2023-04-10T13:09:27.236Z,19.37
2023-04-10T13:11:54.628Z,18.82
2023-04-10T13:14:22.812Z,18.62
2023-04-10T13:16:50.303Z,18.62
2023-04-10T13:19:17.349Z,18.40
2023-04-10T13:21:44.698Z,18.73
2023-04-10T13:24:11.740Z,18.45
2023-04-10T13:26:39.166Z,18.47
2023-04-10T13:29:06.432Z,18.62
2023-04-10T13:31:33.651Z,18.66
2023-04-10T13:34:01.039Z,18.47
2023-04-10T13:36:28.322Z,18.56
2023-04-10T13:38:55.984Z,18.58
2023-04-10T13:41:23.981Z,18.72
2023-04-10T13:43:51.692Z,18.46
2023-04-10T13:46:19.303Z,18.66
2023-04-10T13:48:50.764Z,18.59
2023-04-10T13:51:18.295Z,18.56
2023-04-10T13:53:46.402Z,18.65
2023-04-10T13:56:14.302Z,18.64
2023-04-10T13:58:41.420Z,18.48
2023-04-10T14:01:08.928Z,18.85
2023-04-10T14:03:36.068Z,18.91
2023-04-10T14:06:03.233Z,18.47
2023-04-10T14:08:30.323Z,18.51
2023-04-10T14:10:57.629Z,18.64
2023-04-10T14:13:26.037Z,18.65
2023-04-10T14:15:53.763Z,18.65
2023-04-10T14:18:21.036Z,18.59
2023-04-10T14:20:48.961Z,18.55
2023-04-10T14:23:18.873Z,18.39
2023-04-10T14:25:46.721Z,18.54
2023-04-10T14:28:20.345Z,18.49
2023-04-10T14:30:49.968Z,19.04
2023-04-10T14:33:20.627Z,19.05
2023-04-10T14:35:48.553Z,19.14
2023-04-10T14:38:16.205Z,19.27
2023-04-10T14:40:46.066Z,19.22
2023-04-10T14:43:16.615Z,19.01
2023-04-10T14:45:44.133Z,19.15
2023-04-10T14:48:13.011Z,18.79
2023-04-10T14:50:40.943Z,18.68
2023-04-10T14:53:10.114Z,18.61
2023-04-10T14:55:37.607Z,18.70
2023-04-10T14:58:06.811Z,18.55
2023-04-10T15:00:36.233Z,18.34
2023-04-10T15:03:05.423Z,18.26
2023-04-10T15:05:33.013Z,18.18
2023-04-10T15:08:00.411Z,18.10
2023-04-10T15:10:30.864Z,18.17
2023-04-10T15:12:58.572Z,18.23
2023-04-10T15:15:25.914Z,18.22
2023-04-10T15:17:53.207Z,18.20
2023-04-10T15:20:20.643Z,18.13
2023-04-10T15:22:48.385Z,17.93
2023-04-10T15:25:15.586Z,17.95
2023-04-10T15:27:42.889Z,17.95
2023-04-10T15:30:10.438Z,17.89
2023-04-10T15:32:38.602Z,18.02
2023-04-10T15:35:06.764Z,18.07
2023-04-10T15:37:36.830Z,18.00
2023-04-10T15:40:07.613Z,18.07
2023-04-10T15:42:36.623Z,18.08
2023-04-10T15:45:04.425Z,18.02
2023-04-10T15:47:31.873Z,18.07
2023-04-10T15:49:59.607Z,18.21
2023-04-10T15:52:29.564Z,18.23
2023-04-10T15:54:57.678Z,18.25
2023-04-10T15:57:25.310Z,18.15
2023-04-10T15:59:53.942Z,18.14
2023-04-10T16:02:21.511Z,18.10
2023-04-10T16:04:49.296Z,18.06
2023-04-10T16:10:18.632Z,18.15
2023-04-10T16:12:46.042Z,18.10
2023-04-10T16:15:13.630Z,18.09
2023-04-10T16:17:40.709Z,18.07
2023-04-10T16:20:08.495Z,18.01
2023-04-10T16:22:36.717Z,18.01
2023-04-10T16:27:32.376Z,17.79
2023-04-10T16:29:59.389Z,17.70
2023-04-10T16:32:26.416Z,17.63
2023-04-10T16:34:53.447Z,17.54
2023-04-10T16:37:20.892Z,17.48
2023-04-10T16:39:48.001Z,17.41
2023-04-10T16:42:15.056Z,17.22
2023-04-10T16:44:42.106Z,17.14
2023-04-10T16:47:09.488Z,17.18
2023-04-10T16:49:36.860Z,17.08
2023-04-10T16:52:04.035Z,17.01
2023-04-10T16:54:31.182Z,16.95
2023-04-10T16:56:58.280Z,16.92
2023-04-10T16:59:25.480Z,16.84
2023-04-10T17:01:52.599Z,16.73
2023-04-10T17:04:21.201Z,16.73
2023-04-10T17:06:48.718Z,16.64
2023-04-10T17:09:16.509Z,16.58
2023-04-10T17:11:43.914Z,16.63
2023-04-10T17:14:13.405Z,16.59
2023-04-10T17:16:52.870Z,16.56
2023-04-10T17:19:20.330Z,16.46
2023-04-10T17:21:47.353Z,16.37
2023-04-10T17:24:14.703Z,16.37
2023-04-10T17:26:45.211Z,16.36
2023-04-10T17:29:12.370Z,16.33
2023-04-10T17:31:39.678Z,16.26
2023-04-10T17:34:07.313Z,16.37
2023-04-10T17:36:34.306Z,16.25
2023-04-10T17:39:01.429Z,16.13
2023-04-10T17:41:28.527Z,16.18
2023-04-10T17:43:55.638Z,16.13
2023-04-10T17:46:22.735Z,16.06
2023-04-10T17:48:49.940Z,16.00
2023-04-10T17:51:17.508Z,16.04
2023-04-10T17:53:46.249Z,15.89
2023-04-10T17:56:19.823Z,15.81
2023-04-10T17:58:47.291Z,15.80
2023-04-10T18:01:27.681Z,15.75
2023-04-10T18:03:55.040Z,15.58
2023-04-10T18:06:22.352Z,15.53
2023-04-10T18:08:50.173Z,15.53
2023-04-10T18:11:17.309Z,15.46
2023-04-10T18:13:44.584Z,15.39
2023-04-10T18:16:12.096Z,15.37
2023-04-10T18:18:41.873Z,15.33
2023-04-10T18:21:10.893Z,15.24
2023-04-10T18:23:39.709Z,15.18
2023-04-10T18:26:07.775Z,15.13
2023-04-10T18:28:36.537Z,15.10
2023-04-10T18:31:07.454Z,15.05
2023-04-10T18:33:34.677Z,15.01
2023-04-10T18:36:03.574Z,14.96
2023-04-10T18:38:30.941Z,14.97
2023-04-10T18:40:58.581Z,15.05
2023-04-10T18:43:27.659Z,15.03
2023-04-10T18:45:55.439Z,15.03
2023-04-10T18:48:25.796Z,15.08
2023-04-10T18:50:53.462Z,15.07
2023-04-10T18:53:22.206Z,15.03
2023-04-10T18:55:54.685Z,15.03
2023-04-10T18:58:22.455Z,15.01
2023-04-10T19:00:49.818Z,14.87
2023-04-10T19:03:17.078Z,14.94
2023-04-10T19:05:44.552Z,14.88
2023-04-10T19:08:15.789Z,14.88
2023-04-10T19:10:43.423Z,15.01
2023-04-10T19:13:12.137Z,14.86
2023-04-10T19:15:45.493Z,14.79
2023-04-10T19:18:14.890Z,14.89
2023-04-10T19:20:51.003Z,15.11
2023-04-10T19:23:20.705Z,15.20
2023-04-10T19:28:34.946Z,15.40
2023-04-10T19:31:02.089Z,15.34
2023-04-10T19:33:30.068Z,15.33
2023-04-10T19:35:58.253Z,15.47
2023-04-10T19:38:26.688Z,15.54
2023-04-10T19:40:54.852Z,15.49
2023-04-10T19:43:22.189Z,15.42
2023-04-10T19:45:49.297Z,15.37
2023-04-10T19:48:16.749Z,15.47
2023-04-10T19:50:43.854Z,15.44
2023-04-10T19:53:15.730Z,15.28
2023-04-10T19:55:44.816Z,15.15
2023-04-10T19:58:25.347Z,15.19
2023-04-10T20:01:08.961Z,15.24
2023-04-10T20:03:37.902Z,15.14
2023-04-10T20:06:10.090Z,15.08
2023-04-10T20:08:37.302Z,15.10
2023-04-10T20:11:07.619Z,15.18
2023-04-10T20:13:35.383Z,15.18
2023-04-10T20:16:03.191Z,15.13
2023-04-10T20:18:32.096Z,15.16
2023-04-10T20:20:59.192Z,15.29
2023-04-10T20:23:26.239Z,15.22
2023-04-10T20:25:53.336Z,15.18
2023-04-10T20:28:20.389Z,15.16
2023-04-10T20:30:47.433Z,15.07
2023-04-10T20:33:14.540Z,15.00
2023-04-10T20:35:41.923Z,14.97
2023-04-10T20:38:09.149Z,15.08
2023-04-10T20:40:36.176Z,14.96
2023-04-10T20:43:03.198Z,14.99
2023-04-10T20:45:30.810Z,14.99
2023-04-10T20:47:58.314Z,15.03
2023-04-10T20:50:25.337Z,14.95
2023-04-10T20:52:52.368Z,14.98
2023-04-10T20:55:19.725Z,15.00
2023-04-10T20:57:47.042Z,15.00
2023-04-10T21:00:14.811Z,14.97
2023-04-10T21:02:42.341Z,14.88
2023-04-10T21:05:09.764Z,14.87
2023-04-10T21:07:37.111Z,14.85
2023-04-10T21:10:04.963Z,14.85
2023-04-10T21:12:31.942Z,14.79
2023-04-10T21:14:59.259Z,14.79
2023-04-10T21:17:31.338Z,14.67
2023-04-10T21:19:59.611Z,14.61
2023-04-10T21:22:29.689Z,14.53
2023-04-10T21:24:57.166Z,14.51
2023-04-10T21:27:24.575Z,14.45
2023-04-10T21:29:51.958Z,14.47
2023-04-10T21:32:19.395Z,14.40
2023-04-10T21:34:47.114Z,14.44
2023-04-10T21:37:14.517Z,14.40
2023-04-10T21:39:42.097Z,14.41
2023-04-10T21:42:09.455Z,14.48
2023-04-10T21:44:36.835Z,14.39
2023-04-10T21:47:04.523Z,14.34
2023-04-10T21:49:31.929Z,14.24
2023-04-10T21:51:59.395Z,14.27
2023-04-10T21:54:26.765Z,14.31
2023-04-10T21:56:53.741Z,14.24
2023-04-10T21:59:20.731Z,14.19
2023-04-10T22:01:48.262Z,14.26
2023-04-10T22:04:15.977Z,14.33
2023-04-10T22:06:43.081Z,14.44
2023-04-10T22:09:10.435Z,14.49
2023-04-10T22:11:39.255Z,14.47
2023-04-10T22:14:15.975Z,14.44
2023-04-10T22:16:45.692Z,14.41
2023-04-10T22:19:12.694Z,14.57
2023-04-10T22:21:39.676Z,14.51
2023-04-10T22:24:07.321Z,14.68
2023-04-10T22:26:35.248Z,14.71
2023-04-10T22:29:04.090Z,14.48
2023-04-10T22:31:31.210Z,14.28
2023-04-10T22:33:58.886Z,14.05
2023-04-10T22:36:33.657Z,13.72
2023-04-10T22:39:01.114Z,13.64
2023-04-10T22:41:29.618Z,13.57
2023-04-10T22:43:56.982Z,13.46
2023-04-10T22:46:24.225Z,13.27
2023-04-10T22:48:51.645Z,13.15
2023-04-10T22:51:18.989Z,13.17
2023-04-10T22:53:46.443Z,13.10
2023-04-10T22:56:14.488Z,12.94
2023-04-10T22:58:41.956Z,12.94
2023-04-10T23:01:11.759Z,12.90
2023-04-10T23:03:39.234Z,12.83
2023-04-10T23:06:06.948Z,12.76
2023-04-10T23:08:34.111Z,12.61
2023-04-10T23:11:01.566Z,12.45
2023-04-10T23:13:28.971Z,12.32
2023-04-10T23:15:56.706Z,12.24
2023-04-10T23:18:23.778Z,12.21
2023-04-10T23:20:51.276Z,12.16
2023-04-10T23:23:18.692Z,12.10
2023-04-10T23:25:47.542Z,12.03
2023-04-10T23:28:14.961Z,12.02
2023-04-10T23:30:42.745Z,11.92
2023-04-10T23:33:10.169Z,11.90
2023-04-10T23:35:37.620Z,11.81
2023-04-10T23:38:05.051Z,11.82
2023-04-10T23:40:32.432Z,11.77
2023-04-10T23:42:59.460Z,11.73
2023-04-10T23:45:26.862Z,11.71
2023-04-10T23:47:54.546Z,11.61
2023-04-10T23:50:21.923Z,11.65
2023-04-10T23:52:52.425Z,11.59
2023-04-10T23:55:20.035Z,11.62
2023-04-10T23:57:47.439Z,11.64
